Current | Forecast
Updated: 7:30 AM EEST on June 23, 2017
Observed at Boryspil', Ukraine
Temperature 17°C
Humidity 63%
Dew Point 10°C
Wind SW at 14 km/h
Pressure 1010 hPa (Steady)
Conditions Clear
Visibility -
UV N/A
Clouds
Yesterday's Maximum 23°C
Yesterday's Minimum 10°C approx.
Yesterday's Heating Degree Days 3 approx.
Sunrise4:49 AM EEST
Sunset9:07 PM EEST
Moon Rise4:26 AM EEST
Moon Set8:08 PM EEST
Moon PhaseMoon Phase
Waning Crescent
Raw METARMETAR UKBB 230430Z 23004MPS CAVOK 17/10 Q1010 R88/CLRD// NOSIG


Monday
. High: 60° F.
Tuesday
. High: 64° F.
Wednesday
. High: 68° F.
Thursday
. High: 73° F.
Friday
. High: 60° F.
Saturday
. High: 66° F.
Sunday
. High: 64° F.
Monday
. High: 71° F.

Units: English | Metric

Find the Weather for any City, State or Zipcode, or Country:

U.S. State List | Severe Weather | Tropical Storms | Ski Conditions
United States | Canada | Central America | South America | Asia | Europe | Australia | Africa | Islands

Weather Underground

© Copyright 2017
The Weather Company, LLC